Rolla, Canada
Current Conditions -  °F | °C
As of 8:00 PM on Monday 22 Dec 2014 (Local Time) from CYDQ Reporting Station
Clear Clear  
Wind Chill: 23°   Ceiling: Unl
Heat Index: 28°   Visibility: 9mi
Dew Point: 21°   Wind: 5mph
Humidity: 74%   Direction: 290°WNW
Pressure: 30.01"   Gusts: NA
Location:  55.9°N, 120.14°W
Report Text: CYDQ 230300Z AUTO 29004KT 9SM CLR M02/M06 A3001 RMK SLP204
Loading
Personal Weather Stations






























Interactive Weather Map New forecast layout! Learn more

10-Day Weather Forecast

Advertisements
Track Severe Weather on mobile